KAIK

Aiken Municipal Airport

Aiken, South Carolina, USA
METAR KAIK 232055Z AUTO 21004KT 10SM SCT060 25/12 A3036 RMK AO2
Observed Flight Rules
Feb-23 @ 20:55 UTC (2 hours ago) Visual Flight Rules
Wind Visibility Clouds
210° at 4 knots 10 miles
  • Scattered at 6,000' AGL
Temperatures Readings
Current 25°C / 77°F
Dewpoint 12°C / 54°F
Humidity 44%
Altimeter 30.36" Hg
Pressure 1028 hPa
Elevation 161
METAR KAIK 232055Z AUTO 21004KT 10SM SCT060 25/12 A3036 RMK AO2
Observed Flight Rules
Feb-23 @ 20:55 UTC
(2 hours ago)
VFR
Wind Visibility
210° at 4 knots 10 miles
Clouds
  • Scattered at 6,000' AGL
Temperature Dewpoint
25°C / 77°F 12°C / 54°F
Humidity Altimeter Pressure
44% 30.36" Hg 1028 hPa